Time;durP1;ratioP1;P1;durP2;ratioP2;P2;SDS_P1;SDS_P2;PMS_P1;PMS_P2;Temp;Humidity;BMP_temperature;BMP_pressure;BME280_temperature;BME280_humidity;BME280_pressure;Samples;Min_cycle;Max_cycle;Signal;HPM_P1;HPM_P2
2022/04/17 00:02:16;;;;;;;4.00;3.60;;;;;;;;;;5014006;28;20209;-57
2022/04/17 00:04:42;;;;;;;4.30;3.90;;;;;;;;;;5013787;28;20196;-57
2022/04/17 00:07:08;;;;;;;4.20;3.80;;;;;;;;;;5012217;28;20214;-57
2022/04/17 00:09:34;;;;;;;4.13;3.70;;;;;;;;;;5009785;28;20284;-57
2022/04/17 00:12:03;;;;;;;4.20;3.80;;;;;;;;;;5012072;28;20678;-57
2022/04/17 00:14:29;;;;;;;3.93;3.50;;;;;;;;;;5013171;28;20185;-57
2022/04/17 00:16:55;;;;;;;3.97;3.00;;;;;;;;;;5012497;28;20639;-57
2022/04/17 00:19:22;;;;;;;4.83;4.03;;;;;;;;;;5011908;28;20466;-57
2022/04/17 00:21:49;;;;;;;5.47;3.77;;;;;;;;;;5010634;28;20204;-57
2022/04/17 00:24:15;;;;;;;4.00;3.40;;;;;;;;;;5017524;28;20216;-57
2022/04/17 00:26:41;;;;;;;4.47;3.40;;;;;;;;;;5016097;28;20197;-57
2022/04/17 00:29:07;;;;;;;4.50;3.70;;;;;;;;;;5013150;28;20196;-57
2022/04/17 00:31:33;;;;;;;3.93;3.57;;;;;;;;;;5013570;28;20221;-57
2022/04/17 00:33:59;;;;;;;4.23;3.50;;;;;;;;;;5017262;28;20216;-57
2022/04/17 00:36:25;;;;;;;4.77;3.63;;;;;;;;;;5014674;28;20661;-57
2022/04/17 00:38:51;;;;;;;4.10;3.70;;;;;;;;;;5016747;28;20189;-57
2022/04/17 00:41:17;;;;;;;4.00;3.50;;;;;;;;;;5017583;28;20671;-57
2022/04/17 00:43:44;;;;;;;4.00;3.50;;;;;;;;;;5016627;28;20181;-56
2022/04/17 00:46:10;;;;;;;3.50;3.20;;;;;;;;;;5016083;28;20220;-56
2022/04/17 00:48:36;;;;;;;4.20;3.43;;;;;;;;;;5017334;28;20193;-57
2022/04/17 00:51:01;;;;;;;3.43;3.13;;;;;;;;;;5016858;28;20189;-57
2022/04/17 00:53:27;;;;;;;3.87;3.50;;;;;;;;;;5018049;28;20190;-57
2022/04/17 00:55:54;;;;;;;4.20;3.80;;;;;;;;;;5017647;28;20184;-57
2022/04/17 00:58:20;;;;;;;4.07;3.60;;;;;;;;;;5017579;28;20197;-57
2022/04/17 01:00:46;;;;;;;4.60;3.40;;;;;;;;;;5022289;28;20190;-56
2022/04/17 01:03:12;;;;;;;4.07;3.50;;;;;;;;;;5015648;28;20197;-56
2022/04/17 01:05:41;;;;;;;5.00;3.50;;;;;;;;;;5017661;28;20190;-57
2022/04/17 01:08:08;;;;;;;4.20;3.80;;;;;;;;;;5015472;28;20593;-57
2022/04/17 01:10:34;;;;;;;4.10;3.70;;;;;;;;;;5022723;28;20265;-57
2022/04/17 01:12:59;;;;;;;4.50;4.10;;;;;;;;;;5015566;28;20308;-57
2022/04/17 01:15:25;;;;;;;4.23;3.83;;;;;;;;;;5014863;28;20193;-56
2022/04/17 01:17:51;;;;;;;4.43;3.80;;;;;;;;;;5016045;28;20197;-56
2022/04/17 01:20:17;;;;;;;4.50;3.63;;;;;;;;;;5017555;28;20197;-57
2022/04/17 01:22:49;;;;;;;4.17;3.77;;;;;;;;;;5012584;28;20193;-57
2022/04/17 01:28:03;;;;;;;5.37;3.90;;;;;;;;;;5016166;28;20244;-57
2022/04/17 01:30:29;;;;;;;4.67;3.60;;;;;;;;;;5014955;28;20245;-57
2022/04/17 01:32:55;;;;;;;5.03;3.80;;;;;;;;;;5013889;28;20596;-57
2022/04/17 01:35:21;;;;;;;4.57;4.10;;;;;;;;;;5017169;28;20197;-56
2022/04/17 01:37:50;;;;;;;5.00;4.10;;;;;;;;;;5013533;28;20229;-57
2022/04/17 01:40:16;;;;;;;4.13;3.47;;;;;;;;;;5016229;28;20193;-57
2022/04/17 01:42:42;;;;;;;3.87;3.53;;;;;;;;;;5015490;28;20647;-57
2022/04/17 01:45:08;;;;;;;3.63;3.33;;;;;;;;;;5012851;28;20230;-57
2022/04/17 01:47:34;;;;;;;5.03;3.80;;;;;;;;;;5015564;28;20196;-57
2022/04/17 01:50:00;;;;;;;6.10;3.70;;;;;;;;;;5015722;28;20198;-57
2022/04/17 01:52:26;;;;;;;3.97;3.63;;;;;;;;;;5015286;28;20213;-56
2022/04/17 01:54:52;;;;;;;3.90;3.60;;;;;;;;;;5016515;28;20203;-57
2022/04/17 01:57:18;;;;;;;4.60;3.60;;;;;;;;;;5015881;28;20643;-57
2022/04/17 01:59:44;;;;;;;4.13;3.73;;;;;;;;;;5014836;28;20682;-57
2022/04/17 02:02:09;;;;;;;4.50;3.90;;;;;;;;;;5017270;28;20274;-57
2022/04/17 02:04:36;;;;;;;3.80;3.50;;;;;;;;;;5016421;28;20203;-56
2022/04/17 02:07:04;;;;;;;4.20;3.53;;;;;;;;;;5017751;28;20236;-57
2022/04/17 02:09:30;;;;;;;5.03;3.80;;;;;;;;;;5015698;28;20201;-56
2022/04/17 02:11:56;;;;;;;4.03;3.63;;;;;;;;;;5014683;28;20212;-57
2022/04/17 02:14:22;;;;;;;4.60;3.53;;;;;;;;;;5015826;28;20709;-56
2022/04/17 02:16:48;;;;;;;4.37;3.60;;;;;;;;;;5014617;28;20189;-56
2022/04/17 02:19:14;;;;;;;7.60;3.57;;;;;;;;;;5014432;28;20196;-57
2022/04/17 02:21:40;;;;;;;4.50;3.80;;;;;;;;;;5015194;28;20189;-57
2022/04/17 02:24:06;;;;;;;3.77;3.37;;;;;;;;;;5014285;28;20197;-56
2022/04/17 02:26:32;;;;;;;3.73;3.37;;;;;;;;;;5014555;28;20201;-57
2022/04/17 02:28:59;;;;;;;4.33;3.63;;;;;;;;;;5013256;28;20211;-56
2022/04/17 02:31:25;;;;;;;5.07;4.17;;;;;;;;;;5014881;28;20552;-57
2022/04/17 02:33:51;;;;;;;5.10;3.70;;;;;;;;;;5017980;28;20189;-56
2022/04/17 02:36:17;;;;;;;5.67;3.70;;;;;;;;;;5015075;28;20186;-57
2022/04/17 02:38:43;;;;;;;4.10;3.30;;;;;;;;;;5016940;28;20178;-56
2022/04/17 02:41:09;;;;;;;4.40;4.00;;;;;;;;;;5011163;28;20717;-57
2022/04/17 02:43:35;;;;;;;4.23;3.60;;;;;;;;;;5015105;28;20186;-56
2022/04/17 02:46:01;;;;;;;4.63;3.60;;;;;;;;;;5012134;28;20768;-56
2022/04/17 02:48:27;;;;;;;5.07;3.90;;;;;;;;;;5013784;28;20209;-57
2022/04/17 02:50:55;;;;;;;6.13;3.80;;;;;;;;;;5015611;28;20767;-57
2022/04/17 02:53:21;;;;;;;5.30;3.90;;;;;;;;;;5013733;28;20336;-57
2022/04/17 02:55:47;;;;;;;6.50;3.77;;;;;;;;;;5006396;28;20192;-57
2022/04/17 02:58:14;;;;;;;4.47;4.03;;;;;;;;;;5014142;28;20185;-57
2022/04/17 03:05:36;;;;;;;3.97;3.57;;;;;;;;;;5015181;28;20191;-56
2022/04/17 03:06:11;;;;;;;4.30;3.80;;;;;;;;;;5016096;28;20192;-57
2022/04/17 03:08:41;;;;;;;6.57;3.67;;;;;;;;;;5016499;28;20621;-56
2022/04/17 03:11:07;;;;;;;5.57;3.90;;;;;;;;;;5013534;28;20196;-56
2022/04/17 03:13:33;;;;;;;4.03;3.63;;;;;;;;;;5015487;28;20656;-56
2022/04/17 03:15:59;;;;;;;4.10;3.70;;;;;;;;;;5014274;28;20216;-56
2022/04/17 03:18:25;;;;;;;4.23;3.50;;;;;;;;;;5014489;28;20185;-56
2022/04/17 03:20:51;;;;;;;3.90;3.50;;;;;;;;;;5013174;28;20247;-57
2022/04/17 03:23:17;;;;;;;6.33;3.40;;;;;;;;;;5014094;28;20215;-57
2022/04/17 03:25:44;;;;;;;3.70;3.40;;;;;;;;;;5013874;28;20673;-56
2022/04/17 03:28:10;;;;;;;4.43;3.17;;;;;;;;;;5013050;28;20205;-57
2022/04/17 03:30:35;;;;;;;4.93;3.37;;;;;;;;;;5013270;28;20611;-56
2022/04/17 03:33:02;;;;;;;4.40;3.70;;;;;;;;;;5013188;28;20206;-57
2022/04/17 03:35:30;;;;;;;4.03;3.60;;;;;;;;;;5012591;28;20231;-57
2022/04/17 03:37:57;;;;;;;4.30;3.90;;;;;;;;;;5013914;28;20718;-57
2022/04/17 03:40:23;;;;;;;4.27;3.70;;;;;;;;;;5015472;28;20549;-57
2022/04/17 03:42:49;;;;;;;4.53;3.57;;;;;;;;;;5012013;28;20207;-56
2022/04/17 03:45:16;;;;;;;3.83;3.43;;;;;;;;;;5013514;28;20243;-57
2022/04/17 03:47:42;;;;;;;4.07;3.60;;;;;;;;;;5013808;28;20675;-56
2022/04/17 03:50:09;;;;;;;4.20;3.80;;;;;;;;;;5014896;28;20193;-56
2022/04/17 03:52:38;;;;;;;4.27;3.47;;;;;;;;;;5013881;28;20217;-56
2022/04/17 03:55:04;;;;;;;5.27;3.73;;;;;;;;;;5012768;28;20201;-57
2022/04/17 03:57:30;;;;;;;5.83;3.77;;;;;;;;;;5013353;28;20287;-57
2022/04/17 03:59:56;;;;;;;3.83;3.43;;;;;;;;;;5013177;28;20759;-56
2022/04/17 04:02:22;;;;;;;3.90;3.43;;;;;;;;;;5015323;28;20194;-57
2022/04/17 04:04:48;;;;;;;3.80;3.40;;;;;;;;;;5012531;28;20197;-57
2022/04/17 04:07:14;;;;;;;3.70;3.13;;;;;;;;;;5013118;28;20344;-56
2022/04/17 04:09:40;;;;;;;3.70;3.27;;;;;;;;;;5015465;28;20188;-56
2022/04/17 04:12:06;;;;;;;4.30;3.90;;;;;;;;;;5013952;28;20617;-57
2022/04/17 04:14:32;;;;;;;4.30;3.60;;;;;;;;;;5011868;28;20186;-56
2022/04/17 04:16:59;;;;;;;3.60;3.30;;;;;;;;;;5007152;28;20192;-56
2022/04/17 04:19:25;;;;;;;3.90;3.50;;;;;;;;;;5012424;28;20196;-57
2022/04/17 04:21:51;;;;;;;4.77;3.47;;;;;;;;;;5011959;28;20205;-56
2022/04/17 04:24:19;;;;;;;3.60;3.30;;;;;;;;;;5011751;28;20308;-56
2022/04/17 04:26:45;;;;;;;4.83;3.50;;;;;;;;;;5015153;28;20206;-57
2022/04/17 04:29:11;;;;;;;3.70;3.10;;;;;;;;;;5013963;28;20704;-57
2022/04/17 04:31:37;;;;;;;3.37;3.07;;;;;;;;;;5013179;28;20220;-57
2022/04/17 04:34:03;;;;;;;3.60;3.27;;;;;;;;;;5013274;28;20777;-56
2022/04/17 04:36:29;;;;;;;3.73;3.43;;;;;;;;;;5010877;28;20246;-56
2022/04/17 04:38:55;;;;;;;6.60;3.70;;;;;;;;;;5012214;28;20285;-57
2022/04/17 04:41:21;;;;;;;3.87;3.30;;;;;;;;;;5012015;28;20201;-56
2022/04/17 04:43:47;;;;;;;4.13;3.57;;;;;;;;;;5018210;28;20189;-56
2022/04/17 04:46:13;;;;;;;3.77;3.37;;;;;;;;;;5013932;28;20193;-57
2022/04/17 04:51:27;;;;;;;4.33;3.27;;;;;;;;;;5013014;28;20555;-56
2022/04/17 04:53:54;;;;;;;5.97;3.73;;;;;;;;;;5013511;28;20201;-56
2022/04/17 04:56:20;;;;;;;4.57;3.43;;;;;;;;;;5013026;28;20197;-57
2022/04/17 04:58:46;;;;;;;5.97;3.63;;;;;;;;;;5013108;28;20195;-56
2022/04/17 05:01:12;;;;;;;4.33;3.53;;;;;;;;;;5013484;28;20217;-56
2022/04/17 05:03:38;;;;;;;3.97;3.27;;;;;;;;;;5010912;28;20193;-57
2022/04/17 05:06:04;;;;;;;3.40;2.93;;;;;;;;;;5012262;28;20245;-57
2022/04/17 05:08:30;;;;;;;5.70;3.70;;;;;;;;;;5012977;28;20198;-57
2022/04/17 05:10:57;;;;;;;3.67;3.20;;;;;;;;;;5014017;28;20192;-56
2022/04/17 05:13:23;;;;;;;4.00;3.43;;;;;;;;;;5014311;28;20214;-56
2022/04/17 05:15:49;;;;;;;3.70;3.13;;;;;;;;;;5012706;28;20197;-57
2022/04/17 05:18:14;;;;;;;5.27;3.60;;;;;;;;;;5014070;28;20233;-56
2022/04/17 05:20:40;;;;;;;3.80;3.20;;;;;;;;;;5017547;28;20273;-56
2022/04/17 05:23:22;;;;;;;4.77;3.57;;;;;;;;;;5015903;28;20271;-57
2022/04/17 05:25:50;;;;;;;4.13;3.27;;;;;;;;;;5016450;28;20213;-57
2022/04/17 05:28:16;;;;;;;3.57;3.27;;;;;;;;;;5015844;28;20203;-57
2022/04/17 05:30:42;;;;;;;3.47;3.13;;;;;;;;;;5017299;28;20270;-57
2022/04/17 05:33:08;;;;;;;3.90;3.20;;;;;;;;;;5016523;28;20191;-56
2022/04/17 05:35:34;;;;;;;3.63;3.33;;;;;;;;;;5016213;28;20562;-56
2022/04/17 05:38:00;;;;;;;3.80;3.40;;;;;;;;;;5013119;28;20344;-56
2022/04/17 05:40:26;;;;;;;4.33;3.30;;;;;;;;;;5016985;28;20187;-57
2022/04/17 05:42:52;;;;;;;3.40;3.10;;;;;;;;;;5013545;28;20221;-57
2022/04/17 05:45:18;;;;;;;3.93;3.00;;;;;;;;;;5015578;28;20243;-56
2022/04/17 05:47:44;;;;;;;4.17;3.00;;;;;;;;;;5022235;28;20196;-57
2022/04/17 05:50:10;;;;;;;3.30;3.00;;;;;;;;;;5016263;28;20653;-57
2022/04/17 05:52:36;;;;;;;3.80;3.40;;;;;;;;;;5016473;28;20187;-57
2022/04/17 05:55:02;;;;;;;3.80;2.90;;;;;;;;;;5011599;28;20215;-57
2022/04/17 05:57:28;;;;;;;6.40;3.63;;;;;;;;;;5012534;28;20788;-56
2022/04/17 05:59:54;;;;;;;4.93;3.40;;;;;;;;;;5015669;28;20275;-56
2022/04/17 06:02:20;;;;;;;3.37;3.07;;;;;;;;;;5015317;28;20281;-56
2022/04/17 06:04:47;;;;;;;3.23;2.90;;;;;;;;;;5014062;28;20663;-57
2022/04/17 06:07:13;;;;;;;5.10;3.00;;;;;;;;;;5015006;28;20216;-56
2022/04/17 06:09:39;;;;;;;4.20;2.73;;;;;;;;;;5014139;28;20209;-56
2022/04/17 06:12:05;;;;;;;3.47;2.90;;;;;;;;;;5017316;28;20247;-57
2022/04/17 06:14:31;;;;;;;4.93;2.90;;;;;;;;;;5015171;28;20229;-57
2022/04/17 06:16:57;;;;;;;3.50;2.60;;;;;;;;;;5014248;28;20230;-56
2022/04/17 06:19:24;;;;;;;3.97;2.63;;;;;;;;;;5016349;28;20201;-57
2022/04/17 06:21:49;;;;;;;2.93;2.73;;;;;;;;;;5015093;28;20313;-56
2022/04/17 06:24:15;;;;;;;3.90;2.50;;;;;;;;;;5014422;28;20361;-56
2022/04/17 06:26:42;;;;;;;2.73;2.53;;;;;;;;;;5015543;28;20231;-57
2022/04/17 06:29:08;;;;;;;2.87;2.67;;;;;;;;;;5014996;28;20209;-57
2022/04/17 06:31:34;;;;;;;4.90;2.70;;;;;;;;;;5013067;28;20182;-57
2022/04/17 06:34:00;;;;;;;2.90;2.43;;;;;;;;;;5015188;28;20203;-57
2022/04/17 06:36:26;;;;;;;2.80;2.50;;;;;;;;;;5014724;28;20201;-57
2022/04/17 06:38:52;;;;;;;2.77;2.30;;;;;;;;;;5012972;28;20251;-57
2022/04/17 06:41:18;;;;;;;2.87;2.57;;;;;;;;;;5014941;28;20559;-57
2022/04/17 06:43:44;;;;;;;3.03;2.50;;;;;;;;;;5016067;28;20643;-57
2022/04/17 06:46:10;;;;;;;2.83;2.47;;;;;;;;;;5014543;28;20215;-57
2022/04/17 06:48:36;;;;;;;2.57;2.20;;;;;;;;;;5015543;28;20627;-57
2022/04/17 06:51:02;;;;;;;3.73;2.03;;;;;;;;;;5015679;28;20549;-57
2022/04/17 06:53:28;;;;;;;2.27;2.10;;;;;;;;;;5015562;28;20650;-57
2022/04/17 06:55:54;;;;;;;3.53;2.60;;;;;;;;;;5009743;28;20228;-57
2022/04/17 06:58:20;;;;;;;2.80;2.40;;;;;;;;;;5018106;28;20286;-57
2022/04/17 07:00:46;;;;;;;2.43;2.23;;;;;;;;;;5012507;28;20196;-57
2022/04/17 07:03:14;;;;;;;2.87;2.20;;;;;;;;;;5013859;28;20248;-57
2022/04/17 07:05:40;;;;;;;3.17;2.07;;;;;;;;;;5010443;28;21122;-57
2022/04/17 07:08:06;;;;;;;2.20;2.00;;;;;;;;;;5014063;28;20219;-57
2022/04/17 07:10:32;;;;;;;2.67;2.20;;;;;;;;;;5015646;28;20654;-57
2022/04/17 07:12:58;;;;;;;2.83;2.20;;;;;;;;;;5014490;28;20251;-57
2022/04/17 07:15:24;;;;;;;2.47;2.27;;;;;;;;;;5013948;28;20689;-57
2022/04/17 07:17:50;;;;;;;3.87;2.03;;;;;;;;;;5014020;28;20667;-57
2022/04/17 07:20:16;;;;;;;2.87;2.27;;;;;;;;;;5014228;28;20594;-57
2022/04/17 07:22:42;;;;;;;3.17;2.20;;;;;;;;;;5014361;28;20259;-57
2022/04/17 07:25:09;;;;;;;2.50;2.20;;;;;;;;;;5013345;28;20234;-57
2022/04/17 07:27:39;;;;;;;3.47;2.20;;;;;;;;;;5020843;28;20569;-57
2022/04/17 07:30:08;;;;;;;2.60;2.30;;;;;;;;;;5014322;28;20229;-57
2022/04/17 07:32:34;;;;;;;2.70;2.30;;;;;;;;;;5006052;28;20619;-57
2022/04/17 07:35:00;;;;;;;2.87;2.30;;;;;;;;;;5014156;28;20706;-57
2022/04/17 07:37:27;;;;;;;4.20;2.00;;;;;;;;;;5011345;28;20558;-57
2022/04/17 07:39:53;;;;;;;2.17;1.97;;;;;;;;;;5013495;28;20658;-58
2022/04/17 07:42:20;;;;;;;2.70;2.10;;;;;;;;;;5013812;28;20209;-57
2022/04/17 07:44:46;;;;;;;3.43;2.23;;;;;;;;;;5012465;28;20232;-57
2022/04/17 07:47:12;;;;;;;49.17;5.73;;;;;;;;;;5012530;28;20247;-57
2022/04/17 07:49:38;;;;;;;14.03;2.70;;;;;;;;;;5010773;28;20620;-57
2022/04/17 07:52:05;;;;;;;11.80;2.50;;;;;;;;;;5014446;28;20202;-57
2022/04/17 07:54:31;;;;;;;7.57;2.50;;;;;;;;;;5014329;28;20722;-58
2022/04/17 07:56:56;;;;;;;9.03;2.57;;;;;;;;;;5008287;28;20212;-58
2022/04/17 07:59:25;;;;;;;7.23;2.30;;;;;;;;;;5012850;28;20197;-57
2022/04/17 08:01:51;;;;;;;3.53;1.80;;;;;;;;;;5011127;28;20293;-57
2022/04/17 08:04:17;;;;;;;5.63;2.03;;;;;;;;;;5001863;28;20600;-58
2022/04/17 08:06:43;;;;;;;5.00;3.10;;;;;;;;;;5009620;28;20291;-57
2022/04/17 08:09:09;;;;;;;6.60;2.23;;;;;;;;;;5010605;28;20817;-57
2022/04/17 08:11:34;;;;;;;2.47;1.90;;;;;;;;;;5012618;28;20247;-57
2022/04/17 08:14:00;;;;;;;4.37;2.07;;;;;;;;;;5011743;28;20194;-57
2022/04/17 08:16:27;;;;;;;4.67;2.10;;;;;;;;;;5012319;28;20264;-57
2022/04/17 08:18:53;;;;;;;7.90;2.17;;;;;;;;;;5014777;28;20201;-57
2022/04/17 08:21:19;;;;;;;3.30;2.00;;;;;;;;;;5012132;28;20194;-57
2022/04/17 08:23:45;;;;;;;4.97;2.20;;;;;;;;;;5007078;28;20584;-57
2022/04/17 08:26:11;;;;;;;3.20;1.90;;;;;;;;;;5013147;28;20204;-58
2022/04/17 08:28:37;;;;;;;4.67;2.07;;;;;;;;;;5012366;28;20199;-57
2022/04/17 08:31:03;;;;;;;5.17;2.23;;;;;;;;;;5012206;28;20305;-57
2022/04/17 08:33:29;;;;;;;3.10;1.90;;;;;;;;;;5012385;28;20273;-57
2022/04/17 08:35:55;;;;;;;2.90;1.73;;;;;;;;;;5013486;28;20209;-57
2022/04/17 08:38:22;;;;;;;2.40;1.80;;;;;;;;;;5010642;28;20221;-58
2022/04/17 08:40:48;;;;;;;2.47;2.00;;;;;;;;;;5012572;28;20199;-57
2022/04/17 08:43:14;;;;;;;2.90;1.90;;;;;;;;;;5012809;28;20228;-57
2022/04/17 08:45:40;;;;;;;2.73;2.13;;;;;;;;;;5013070;28;20848;-57
2022/04/17 08:48:06;;;;;;;2.45;1.65;;;;;;;;;;5011884;28;20193;-57
2022/04/17 08:50:32;;;;;;;2.13;1.90;;;;;;;;;;5013469;28;20292;-58
2022/04/17 08:52:59;;;;;;;3.88;2.03;;;;;;;;;;5013168;28;20261;-58
2022/04/17 08:55:24;;;;;;;3.85;2.20;;;;;;;;;;5015204;28;20192;-58
2022/04/17 08:57:50;;;;;;;2.22;2.03;;;;;;;;;;5016704;28;20200;-58
2022/04/17 09:00:17;;;;;;;2.42;2.22;;;;;;;;;;5017980;28;20189;-57
2022/04/17 09:02:43;;;;;;;2.75;1.92;;;;;;;;;;5017806;28;20382;-57
2022/04/17 09:05:10;;;;;;;3.05;1.98;;;;;;;;;;5016643;28;20268;-58
2022/04/17 09:07:40;;;;;;;5.47;2.00;;;;;;;;;;5015101;28;20282;-58
2022/04/17 09:10:06;;;;;;;2.47;1.80;;;;;;;;;;5015545;28;20650;-58
2022/04/17 09:12:32;;;;;;;1.90;1.80;;;;;;;;;;5014843;28;20192;-58
2022/04/17 09:14:58;;;;;;;2.25;1.80;;;;;;;;;;5017504;28;20202;-58
2022/04/17 09:17:30;;;;;;;4.10;1.80;;;;;;;;;;5016356;28;20243;-58
2022/04/17 09:19:56;;;;;;;3.90;2.00;;;;;;;;;;5016617;28;20562;-58
2022/04/17 09:22:22;;;;;;;2.00;1.80;;;;;;;;;;5015748;28;20217;-58
2022/04/17 09:24:48;;;;;;;4.43;1.95;;;;;;;;;;5018164;28;20182;-58
2022/04/17 09:27:14;;;;;;;3.60;2.00;;;;;;;;;;5016428;28;20247;-57
2022/04/17 09:29:40;;;;;;;3.90;1.80;;;;;;;;;;5017779;28;20240;-57
2022/04/17 09:32:07;;;;;;;2.60;2.05;;;;;;;;;;5016583;28;20213;-57
2022/04/17 09:34:52;;;;;;;2.72;2.08;;;;;;;;;;5017191;28;20558;-57
2022/04/17 09:37:18;;;;;;;2.10;1.90;;;;;;;;;;5017102;28;20185;-57
2022/04/17 09:39:45;;;;;;;2.40;1.90;;;;;;;;;;5008131;28;20459;-57
2022/04/17 09:42:11;;;;;;;2.08;1.88;;;;;;;;;;5020358;28;20201;-57
2022/04/17 09:44:37;;;;;;;4.05;1.80;;;;;;;;;;5014802;28;20196;-57
2022/04/17 09:47:03;;;;;;;2.13;1.60;;;;;;;;;;5015741;28;20197;-57
2022/04/17 09:49:30;;;;;;;3.17;1.65;;;;;;;;;;5017173;28;20208;-57
2022/04/17 09:52:09;;;;;;;5.03;1.85;;;;;;;;;;5013504;28;20208;-56
2022/04/17 09:54:34;;;;;;;2.17;1.70;;;;;;;;;;5015249;28;20220;-57
2022/04/17 09:57:00;;;;;;;2.90;1.58;;;;;;;;;;5015500;28;20227;-57
2022/04/17 09:59:27;;;;;;;1.88;1.77;;;;;;;;;;5016469;28;20481;-57
2022/04/17 10:01:54;;;;;;;4.50;2.13;;;;;;;;;;5020319;28;20214;-57
2022/04/17 10:04:20;;;;;;;3.15;1.92;;;;;;;;;;5015156;28;20226;-57
2022/04/17 10:06:46;;;;;;;3.38;2.03;;;;;;;;;;5013208;28;20216;-57
2022/04/17 10:09:14;;;;;;;1.80;1.70;;;;;;;;;;5026941;28;20721;-57
2022/04/17 10:11:40;;;;;;;3.83;1.90;;;;;;;;;;5019561;28;20189;-57
2022/04/17 10:14:06;;;;;;;2.95;1.77;;;;;;;;;;5014516;28;20193;-57
2022/04/17 10:16:32;;;;;;;2.15;1.52;;;;;;;;;;5014245;28;20275;-56
2022/04/17 10:18:59;;;;;;;1.70;1.60;;;;;;;;;;5014213;28;20273;-58
2022/04/17 10:21:25;;;;;;;1.80;1.70;;;;;;;;;;5021530;28;20560;-57
2022/04/17 10:23:51;;;;;;;5.88;1.58;;;;;;;;;;5015121;28;20186;-57
2022/04/17 10:26:17;;;;;;;3.70;1.85;;;;;;;;;;5017312;28;20248;-58
2022/04/17 10:28:47;;;;;;;1.88;1.60;;;;;;;;;;5014970;28;20217;-57
2022/04/17 10:31:20;;;;;;;2.22;1.80;;;;;;;;;;5017109;28;20233;-57
2022/04/17 10:34:22;;;;;;;2.10;1.60;;;;;;;;;;5015672;28;20185;-57
2022/04/17 10:37:13;;;;;;;2.67;1.90;;;;;;;;;;5036721;28;20180;-58
2022/04/17 10:39:41;;;;;;;2.05;1.60;;;;;;;;;;5029908;28;20205;-57
2022/04/17 10:42:07;;;;;;;3.63;1.73;;;;;;;;;;5012807;28;20216;-58
2022/04/17 10:44:37;;;;;;;2.63;1.73;;;;;;;;;;5015806;28;20540;-58
2022/04/17 10:47:05;;;;;;;3.13;1.65;;;;;;;;;;5015760;28;20182;-57
2022/04/17 10:49:32;;;;;;;2.47;1.90;;;;;;;;;;5012665;28;20577;-57
2022/04/17 10:51:58;;;;;;;2.92;1.60;;;;;;;;;;5011009;28;20202;-57
2022/04/17 10:54:47;;;;;;;3.08;2.00;;;;;;;;;;5014132;28;21080;-57
2022/04/17 10:57:13;;;;;;;1.75;1.40;;;;;;;;;;5013352;28;20193;-57
2022/04/17 10:59:45;;;;;;;2.67;1.73;;;;;;;;;;5013701;28;20185;-57
2022/04/17 11:02:17;;;;;;;2.13;1.60;;;;;;;;;;5013404;28;20728;-57
2022/04/17 11:04:55;;;;;;;3.30;1.65;;;;;;;;;;5012764;28;20204;-58
2022/04/17 11:07:29;;;;;;;2.38;1.60;;;;;;;;;;5014446;28;20200;-58
2022/04/17 11:10:05;;;;;;;2.65;1.52;;;;;;;;;;5014897;28;20189;-58
2022/04/17 11:12:31;;;;;;;3.67;1.65;;;;;;;;;;5015285;28;20197;-57
2022/04/17 11:15:03;;;;;;;1.65;1.50;;;;;;;;;;5012241;28;20186;-58
2022/04/17 11:17:32;;;;;;;1.92;1.55;;;;;;;;;;5014212;28;20216;-58
2022/04/17 11:19:58;;;;;;;2.67;1.67;;;;;;;;;;5013792;28;20255;-58
2022/04/17 11:22:28;;;;;;;1.70;1.50;;;;;;;;;;5018817;28;20208;-58
2022/04/17 11:24:58;;;;;;;1.42;1.33;;;;;;;;;;5015623;28;20181;-58
2022/04/17 11:27:36;;;;;;;1.50;1.35;;;;;;;;;;5015455;28;20185;-58
2022/04/17 11:30:02;;;;;;;1.80;1.50;;;;;;;;;;5006756;28;20233;-57
2022/04/17 11:32:31;;;;;;;3.92;1.55;;;;;;;;;;5014349;28;20231;-58
2022/04/17 11:34:58;;;;;;;4.05;1.50;;;;;;;;;;5013209;28;20204;-58
2022/04/17 11:37:25;;;;;;;1.85;1.60;;;;;;;;;;5015013;28;20242;-58
2022/04/17 11:39:51;;;;;;;3.10;1.40;;;;;;;;;;5013873;28;20204;-58
2022/04/17 11:42:17;;;;;;;2.45;1.50;;;;;;;;;;5013825;28;20201;-58
2022/04/17 11:44:43;;;;;;;2.13;1.88;;;;;;;;;;5014211;28;20188;-58
2022/04/17 11:47:13;;;;;;;1.58;1.48;;;;;;;;;;5012933;28;20189;-58
2022/04/17 11:49:43;;;;;;;1.80;1.70;;;;;;;;;;5014443;28;20505;-58
2022/04/17 11:52:15;;;;;;;1.60;1.42;;;;;;;;;;5012739;28;20225;-58
2022/04/17 11:54:41;;;;;;;1.55;1.40;;;;;;;;;;5013767;28;20569;-57
2022/04/17 11:57:07;;;;;;;2.17;1.63;;;;;;;;;;5012762;28;20202;-58
2022/04/17 11:59:49;;;;;;;2.78;1.85;;;;;;;;;;5013881;28;20205;-57
2022/04/17 12:02:16;;;;;;;2.67;1.67;;;;;;;;;;5013212;28;20939;-59
2022/04/17 12:04:45;;;;;;;2.22;1.67;;;;;;;;;;5012600;28;20181;-57
2022/04/17 12:07:11;;;;;;;2.53;1.73;;;;;;;;;;5014368;28;20209;-58
2022/04/17 12:09:38;;;;;;;1.58;1.48;;;;;;;;;;5014255;28;20656;-57
2022/04/17 12:12:13;;;;;;;1.70;1.60;;;;;;;;;;5013926;28;20194;-58
2022/04/17 12:14:39;;;;;;;2.38;1.70;;;;;;;;;;5013568;28;20292;-58
2022/04/17 12:17:05;;;;;;;2.20;1.77;;;;;;;;;;5015777;28;20680;-58
2022/04/17 12:19:31;;;;;;;1.98;1.58;;;;;;;;;;5011010;28;20189;-58
2022/04/17 12:21:57;;;;;;;1.52;1.42;;;;;;;;;;5013964;28;20209;-58
2022/04/17 12:24:25;;;;;;;1.92;1.60;;;;;;;;;;5013207;28;20534;-58
2022/04/17 12:26:51;;;;;;;1.50;1.40;;;;;;;;;;5012665;28;20637;-59
2022/04/17 12:29:17;;;;;;;2.05;1.63;;;;;;;;;;5016347;28;20253;-58
2022/04/17 12:31:43;;;;;;;2.30;1.65;;;;;;;;;;5016926;28;20181;-58
2022/04/17 12:34:10;;;;;;;1.83;1.60;;;;;;;;;;5016440;28;20193;-58
2022/04/17 12:36:42;;;;;;;1.90;1.67;;;;;;;;;;5017961;28;20192;-59
2022/04/17 12:39:08;;;;;;;1.70;1.60;;;;;;;;;;5018896;28;20188;-58
2022/04/17 12:41:38;;;;;;;2.40;1.58;;;;;;;;;;5011930;28;20181;-58
2022/04/17 12:44:04;;;;;;;1.67;1.58;;;;;;;;;;5017672;28;20254;-58
2022/04/17 12:46:30;;;;;;;2.00;1.73;;;;;;;;;;5016147;28;20643;-58
2022/04/17 12:49:09;;;;;;;2.92;1.83;;;;;;;;;;5016971;28;20333;-58
2022/04/17 12:51:39;;;;;;;1.73;1.63;;;;;;;;;;5018152;28;20189;-58
2022/04/17 12:54:09;;;;;;;2.85;1.50;;;;;;;;;;5016151;28;20184;-58
2022/04/17 12:56:35;;;;;;;1.80;1.55;;;;;;;;;;5018677;28;20185;-58
2022/04/17 12:59:05;;;;;;;2.13;1.40;;;;;;;;;;5015440;28;21225;-59
2022/04/17 13:01:31;;;;;;;1.63;1.52;;;;;;;;;;5017314;28;20626;-58
2022/04/17 13:04:09;;;;;;;3.15;1.60;;;;;;;;;;5016698;28;20529;-58
2022/04/17 13:06:35;;;;;;;1.88;1.73;;;;;;;;;;5016858;28;20208;-59
2022/04/17 13:09:02;;;;;;;1.67;1.58;;;;;;;;;;5019019;28;20190;-58
2022/04/17 13:11:35;;;;;;;2.25;1.67;;;;;;;;;;5016215;28;20189;-58
2022/04/17 13:14:04;;;;;;;1.52;1.42;;;;;;;;;;5016753;28;20200;-58
2022/04/17 13:16:33;;;;;;;2.22;1.40;;;;;;;;;;5018023;28;20283;-61
2022/04/17 13:18:59;;;;;;;2.85;1.65;;;;;;;;;;5016408;28;20280;-60
2022/04/17 13:21:25;;;;;;;2.03;1.60;;;;;;;;;;5017369;28;20264;-60
2022/04/17 13:23:51;;;;;;;1.80;1.63;;;;;;;;;;5015898;28;20189;-60
2022/04/17 13:26:18;;;;;;;1.70;1.60;;;;;;;;;;5013396;28;20186;-61
2022/04/17 13:28:44;;;;;;;2.30;1.52;;;;;;;;;;5017778;28;20200;-61
2022/04/17 13:31:10;;;;;;;2.40;1.70;;;;;;;;;;5016737;28;20772;-60
2022/04/17 13:33:36;;;;;;;2.88;1.52;;;;;;;;;;5017329;28;20553;-60
2022/04/17 13:36:03;;;;;;;1.88;1.65;;;;;;;;;;5019218;28;21356;-61
2022/04/17 13:38:29;;;;;;;3.45;1.90;;;;;;;;;;5016890;28;20201;-60
2022/04/17 13:40:55;;;;;;;2.10;1.80;;;;;;;;;;5016800;28;20181;-60
2022/04/17 13:43:22;;;;;;;2.15;1.90;;;;;;;;;;5011330;28;20267;-60
2022/04/17 13:45:48;;;;;;;2.10;1.90;;;;;;;;;;5015730;28;20189;-60
2022/04/17 13:48:14;;;;;;;1.70;1.60;;;;;;;;;;5015033;28;20193;-60
2022/04/17 13:50:40;;;;;;;2.08;1.80;;;;;;;;;;5015006;28;20522;-60
2022/04/17 13:53:06;;;;;;;4.53;1.83;;;;;;;;;;5016585;28;20266;-60
2022/04/17 13:55:32;;;;;;;2.22;1.50;;;;;;;;;;5015204;28;20223;-61
2022/04/17 13:57:58;;;;;;;2.45;1.60;;;;;;;;;;5016504;28;20180;-61
2022/04/17 14:00:24;;;;;;;2.00;1.70;;;;;;;;;;5016220;28;20238;-61
2022/04/17 14:02:50;;;;;;;1.90;1.48;;;;;;;;;;5015946;28;20189;-60
2022/04/17 14:05:16;;;;;;;3.90;1.40;;;;;;;;;;5016097;28;20197;-61
2022/04/17 14:07:42;;;;;;;1.50;1.40;;;;;;;;;;5017269;28;20701;-57
2022/04/17 14:10:08;;;;;;;1.88;1.52;;;;;;;;;;5012620;28;20328;-58
2022/04/17 14:12:38;;;;;;;2.00;1.55;;;;;;;;;;5011754;28;20209;-57
2022/04/17 14:15:04;;;;;;;1.73;1.63;;;;;;;;;;5016418;28;20212;-57
2022/04/17 14:17:30;;;;;;;4.00;1.42;;;;;;;;;;5015456;28;20243;-58
2022/04/17 14:19:56;;;;;;;2.28;1.38;;;;;;;;;;5016709;28;20264;-57
2022/04/17 14:22:24;;;;;;;2.97;1.50;;;;;;;;;;5015511;28;20654;-58
2022/04/17 14:24:53;;;;;;;2.75;1.20;;;;;;;;;;5014319;28;20610;-58
2022/04/17 14:27:20;;;;;;;1.70;1.38;;;;;;;;;;5014230;28;20196;-58
2022/04/17 14:29:46;;;;;;;2.30;1.27;;;;;;;;;;5016632;28;20710;-58
2022/04/17 14:32:12;;;;;;;2.47;1.40;;;;;;;;;;5015437;28;20197;-58
2022/04/17 14:34:38;;;;;;;1.95;1.52;;;;;;;;;;5014608;28;20227;-58
2022/04/17 14:37:04;;;;;;;3.00;1.40;;;;;;;;;;5015986;28;20698;-58
2022/04/17 14:39:30;;;;;;;1.30;1.20;;;;;;;;;;5015098;28;20311;-58
2022/04/17 14:41:56;;;;;;;1.73;1.42;;;;;;;;;;5012160;28;20236;-58
2022/04/17 14:44:22;;;;;;;1.75;1.50;;;;;;;;;;5015056;28;20615;-58
2022/04/17 14:46:48;;;;;;;2.75;1.48;;;;;;;;;;5015918;28;20534;-58
2022/04/17 14:49:14;;;;;;;3.40;1.63;;;;;;;;;;5015455;28;20189;-58
2022/04/17 14:51:41;;;;;;;1.50;1.40;;;;;;;;;;5014736;28;20710;-58